AREA preflight bulletin
Updated "live" 28 Jan 2020, 02:30

back to the map




METAR og TAF


KANGERLUSSUAQ
  AKTUEL BGSF 280220Z AUTO 06007KT 9999NDV -SG SCT029/// OVC035/// M16/M19 Q0999=
  TAF 24 timer BGSF 272256Z 2800/2906 06005KT 9999 BKN040 TEMPO 2800/2804 4000 -SN BKN020 BECMG 2804/2807 SCT050 TEMPO 2807/2906 BKN050=

SISIMIUT
  AKTUEL BGSS 280220Z AUTO 11007KT 050V170 //// SCT018/// SCT039/// OVC070/// M10/M14 Q0998=
  TAF 9 timer BGSS 272111Z 2721/2724 CNL=

MANIITSOQ
  AKTUEL BGMQ 280220Z AUTO 08008KT 1200NDV -SN VV005/// M13/M15 Q0999 RESN=
  TAF 9 timer BGMQ 271814Z 2718/2719 CNL=

NUUK
  AKTUEL BGGH 280150Z 15002KT 7000 -SHSN BKN015 OVC040 M11/M14 Q0999=
  TAF 9 timer BGGH 272257Z 2800/2806 36005KT 9999 BKN060 TEMPO 2800/2806 2500 -SHSN BKN012=

ILULISSAT
  AKTUEL BGJN 280220Z AUTO 10002KT 9999NDV OVC028/// M14/M19 Q0998=
  TAF 9 timer BGJN 272003Z 2720/2803 VRB08KT 9999 BKN025 PROB40 2720/2803 2500 -SN BKN012=

AASIAAT
  AKTUEL BGAA 280220Z AUTO 15007KT 9999NDV BKN033/// BKN050/// M12/M16 Q0998=
  TAF 9 timer BGAA 271855Z 2718/2720 CNL=


SIGMETS:

SONDRESTROM FIR
  SIGMET BGGL SIGMET U01 VALID 280140/280440 BGSF- BGGL NUUK FIR SEV TURB FCST AT 0140Z WI N6951 W02523 - N6925 W02255 - N6537 W03636 - N6635 W03652 - N6841 W03236 - N6951 W02523 SFC/FL130 STNR WKN=

SNOWTAM:

ICAO
BGSF (KANGERLUSSUAQ)

valid from:
2001272014

Notam_id:
0303

SNOWTAM 0303 A) BGSF B) 01272014 C) 09 F) 48/48/48 G) 6/6/6 H) 3/5/5 N) A B C/48/MEDIUM D/48/POOR R) N E/48/POOR W/487/POOR HELIPAD/48/POOR T) MEASURED FRICTION COEFFICIENTS 35/50/50 TAP, RWY CONTAMINATION 100 PERCENT 1MM DRY SNOW AND 10 PERCENT 5MM COMPACTED OR ROLLED SNOW, SWEEPING IN PROGRESS


ICAO
BGMQ (MANIITSOQ)

valid from:
2001271635

Notam_id:
0170

SNOWTAM 0170 A) BGMQ B) 01271635 C) 16 F) 84/84/84 G) 1/1/1 H) 5/5/5 N) 84/POOR R) 84/POOR T) RWY CONTAMINATION 100 PERCENT 1 MM DRY SNOW AND 25 PERCENT 1 MM COMPACTED SNOW - MEASURED FRICTION COEFFICIENTS 55/58/61 TAP - SWEEPING IN PROGRESS


ICAO
BGGH (NUUK)

valid from:
2001272305

Notam_id:
0459

SNOWTAM 0459 A) BGGH B) 01272305 C) 05 F) 48/48/48 G) 2/2/2 H) 5/5/5 N) 4/GOOD R) 8/POOR T) RWY CONTAMINATION 25 PERCENT 1MM DRY SNOW AND 10 PERCENT 1MM COMPACTED SNOW - MEASURED FRICTION COEFFICIENTS 80/80/80 TAP



NOTAM/SNOWTAM for operationel use has to be confirmed with the
nearest AIS Briefing Office prior to a flight.

ICAO
BGSS (SISIMIUT)

FIR
BGGL

Notam_id:
BGB0010/20

valid from:
2001041140

E) BGSS AFIS FREQ 118,100 MHZ NO COVERAGE IN SECTOR BETWEEN 280 MAG AND 110 MAG BELOW 7000FT.

valid to:
2005301800


Replacing:
BGB0696/19

ICAO
BGSS (SISIMIUT)

FIR
BGGL

Notam_id:
BGB0115/20

valid from:
2001241618

E) RWY 13 PAPI LEFT SIDE U/S. RWY 31 PAPI RIGHT SIDE U/S.

valid to:
2001311800




ICAO
BGGH (NUUK)

FIR
BGGL

Notam_id:
BGB0084/20

valid from:
2001211253

E) LIGHTING ON RWY DESIGNATION SIGNS U/S.

valid to:
2002281500EST




ICAO
BGGH (NUUK)

FIR
BGGL

Notam_id:
BGB0819/19

valid from:
1912161442

E) BGGH AFIS FREQ 119.100 MHZ LIMITED RADIOCOVERAGE WITHIN TIZ TO THE NE, E, SE AND S.

valid to:
2003011200EST


Replacing:
BGB0814/19

ICAO
BGGL (SONDRESTROM FIR)

FIR
BGGL

Notam_id:
BGA0483/19

valid from:
1909271038

E) NUUK INFORMATION FREQ 5526 KHZ PSN 6334N03707W KULUSUK U/S.

valid to:
2004011800




ICAO
BGGL (SONDRESTROM FIR)

FIR
BGGL

Notam_id:
BGA0001/20

valid from:
2001010613

E) CHECKLIST YEAR=2018 0199 YEAR=2019 0483 0584 0601 0608 0609 YEAR=2020 NIL LATEST PUBLICATIONS AIP AIRAC AMDT IFR 008/2019 EFFECTIVE DATE 05 DEC 19 AIP AMDT IFR 003/2018 EFFECTIVE DATE 15 MAR 18 AIP SUP IFR 002/2019 EFFECTIVE DATE 08 NOV 19 AIC IFR A001/2019 EFFECTIVE DATE 17 JAN 19 AIC CHECKLIST AIP IFR A001/2016 A002/2016 A001/2017 A002/2017 A002/2018 A003/2018 A004/2018 A001/2019 AIP VFR NIL AIP MIL NIL SUP CHECKLIST AIP IFR NIL AIP VFR NIL AIP MIL NIL

valid to:
2002010613EST


Replacing:
BGA0594/19

ICAO
BGGL (SONDRESTROM FIR)

FIR
BGGL

Notam_id:
BGB0001/20

valid from:
2001010614

E) CHECKLIST YEAR=2019 0606 0677 0696 0734 0765 0787 0801 0808 0817 0819 0827 0828 0829 0831 0833 0836 YEAR=2020 NIL LATEST PUBLICATIONS AIP AIRAC AMDT IFR 008/2019 EFFECTIVE DATE 05 DEC 19 AIP AMDT IFR 003/2018 EFFECTIVE DATE 15 MAR 18 AIP SUP IFR 002/2019 EFFECTIVE DATE 08 NOV 19 AIC IFR A001/2019 EFFECTIVE DATE 17 JAN 19 AIC CHECKLIST AIP IFR A001/2016 A002/2016 A001/2017 A002/2017 A002/2018 A003/2018 A004/2018 A001/2019 AIP VFR NIL AIP MIL NIL SUP CHECKLIST AIP IFR NIL AIP VFR NIL AIP MIL NIL

valid to:
2002010614EST


Replacing:
BGB0781/19

ICAO
BGGL (SONDRESTROM FIR)

FIR
BGGL

Notam_id:
BGC0001/20

valid from:
2001010614

E) CHECKLIST YEAR=2019 0128 0132 0133 0134 YEAR=2020 NIL LATEST PUBLICATIONS AIP AIRAC AMDT IFR 008/2019 EFFECTIVE DATE 05 DEC 19 AIP AMDT IFR 003/2018 EFFECTIVE DATE 15 MAR 18 AIP SUP IFR 002/2019 EFFECTIVE DATE 08 NOV 19 AIC IFR A001/2019 EFFECTIVE DATE 17 JAN 19 AIC CHECKLIST AIP IFR A001/2016 A002/2016 A001/2017 A002/2017 A002/2018 A003/2018 A004/2018 A001/2019 AIP VFR NIL AIP MIL NIL SUP CHECKLIST AIP IFR NIL AIP VFR NIL AIP MIL NIL

valid to:
2002010614EST


Replacing:
BGC0127/19

ICAO
BGGL (SONDRESTROM FIR)

FIR
BGGL

Notam_id:
BGA0010/20

valid from:
2002270000

E) AIP GREENLAND AIRAC AMDT EFFECTIVE DATE 27 FEB 2020: NIL

valid to:
2003112359




ICAO
BGGL (SONDRESTROM FIR)

FIR
BGGL

Notam_id:
BGA0199/18

valid from:
1805310935

E) GREENLAND AND ADJACENT WATERS ARE CONSIDERED HOSTILE AREAS BY THE CIVIL AVIATION AUTHORITY (TBST). THREE MAJOR REASONS CONTRIBUTE TO DEFINING THE AREA AS HOSTILE: A SAFE FORCED LANDING CANNOT BE ACCOMPLISHED BECAUSE THE SURFACE IS INADEQUATE. THE HELICOPTER OCCUPANTS CANNOT BE ADEQUATELY PROTECTED FROM THE ELEMENTS. SEARCH AND RESCUE RESPONSE/CAPABILITY ARE NOT PROVIDED CONSISTENT WITH ANTICIPATED EXPOSURE.

valid to:
PERM




ICAO
BGGL (SONDRESTROM FIR)

FIR
BGGL

Notam_id:
BGA0601/19

valid from:
2001300000

E) AIP GREENLAND AIRAC AMDT EFFECTIVE DATE 30 JAN 2020: NIL.

valid to:
2002122359




ICAO
BGAA (AASIAAT)

FIR
BGGL

Notam_id:
BGB0828/19

valid from:
1912221307

E) AIP GREENLAND AD 2 - BGAA - 1 - 6.1: CAT 5. PPR 3 HR BEFORE LNDG OR TKOF, FOR ALL TRAFIC OVER 10 TONS, MORE THAN 19 PASSENGERS, WITH EXCEPTION OF SCHEDULED AND COMMERCIAL TRAFIC.

valid to:
PERM





Copyright Naviair   2003-2016